Time;durP1;ratioP1;P1;durP2;ratioP2;P2;SDS_P1;SDS_P2;PMS_P1;PMS_P2;Temp;Humidity;BMP_temperature;BMP_pressure;BME280_temperature;BME280_humidity;BME280_pressure;Samples;Min_cycle;Max_cycle;Signal;HPM_P1;HPM_P2
2022/01/28 00:03:12;;;;;;;;;;;5.50;99.90;;;;;;6211514;22;19930;31
2022/01/28 00:05:40;;;;;;;;;;;5.40;99.90;;;;;;6098686;23;19925;-87
2022/01/28 00:08:07;;;;;;;;;;;5.40;99.90;;;;;;6098580;23;19925;-87
2022/01/28 00:10:35;;;;;;;;;;;5.40;99.90;;;;;;6098497;23;19921;-87
2022/01/28 00:15:57;;;;;;;;;;;5.40;99.90;;;;;;6098346;23;19968;-85
2022/01/28 00:18:49;;;;;;;;;;;5.10;99.90;;;;;;6098869;23;20351;-86
2022/01/28 00:40:27;;;;;;;;;;;4.70;99.90;;;;;;6098724;23;19973;-86
2022/01/28 00:42:54;;;;;;;;;;;4.60;99.90;;;;;;6098911;23;19929;-86
2022/01/28 00:45:21;;;;;;;;;;;4.60;99.90;;;;;;6098708;23;19945;-86
2022/01/28 00:47:48;;;;;;;;;;;4.60;99.90;;;;;;6098646;23;19951;-86
2022/01/28 00:50:15;;;;;;;;;;;4.60;99.90;;;;;;6098055;23;19921;-86
2022/01/28 00:52:43;;;;;;;;;;;4.60;99.90;;;;;;6098586;23;20264;-86
2022/01/28 00:55:10;;;;;;;;;;;4.60;99.90;;;;;;6098406;23;20395;-86
2022/01/28 00:57:37;;;;;;;;;;;4.70;99.90;;;;;;6098604;23;20261;-86
2022/01/28 01:00:04;;;;;;;;;;;4.60;99.90;;;;;;6098602;23;19921;-87
2022/01/28 01:02:31;;;;;;;;;;;4.60;99.90;;;;;;6098312;23;20289;-86
2022/01/28 01:04:58;;;;;;;;;;;4.60;99.90;;;;;;6098145;23;19935;-86
2022/01/28 01:07:25;;;;;;;;;;;4.60;99.90;;;;;;6098294;23;20257;-87
2022/01/28 01:09:53;;;;;;;;;;;4.50;99.90;;;;;;6072676;23;19992;-86
2022/01/28 01:12:22;;;;;;;;;;;4.40;99.90;;;;;;6098452;23;19921;-86
2022/01/28 01:14:49;;;;;;;;;;;4.40;99.90;;;;;;6098391;23;19922;-86
2022/01/28 01:17:27;;;;;;;;;;;4.30;99.90;;;;;;6098158;23;19922;-86
2022/01/28 01:20:07;;;;;;;;;;;4.20;99.90;;;;;;6098634;23;19988;-86
2022/01/28 01:22:38;;;;;;;;;;;4.20;99.90;;;;;;6098589;23;19944;-87
2022/01/28 01:25:15;;;;;;;;;;;4.30;99.90;;;;;;6098297;23;19921;-86
2022/01/28 01:27:42;;;;;;;;;;;4.20;99.90;;;;;;6098474;23;19945;-86
2022/01/28 01:30:10;;;;;;;;;;;4.20;99.90;;;;;;6096638;23;19968;-86
2022/01/28 01:32:37;;;;;;;;;;;4.20;99.90;;;;;;6098716;23;19955;-85
2022/01/28 01:35:04;;;;;;;;;;;4.30;99.90;;;;;;6097578;23;19937;-86
2022/01/28 01:37:31;;;;;;;;;;;4.30;99.90;;;;;;6098254;23;19921;-86
2022/01/28 01:39:58;;;;;;;;;;;4.40;99.90;;;;;;6098448;23;19921;-86
2022/01/28 01:42:33;;;;;;;;;;;4.40;99.90;;;;;;6098079;23;19969;-86
2022/01/28 01:45:53;;;;;;;;;;;4.40;99.90;;;;;;6098721;23;19921;-87
2022/01/28 01:53:35;;;;;;;;;;;4.70;99.90;;;;;;6098046;23;19929;-86
2022/01/28 01:56:01;;;;;;;;;;;5.00;99.90;;;;;;6098247;23;19922;-86
2022/01/28 01:58:31;;;;;;;;;;;4.90;99.90;;;;;;6098186;23;19921;-86
2022/01/28 02:00:59;;;;;;;;;;;4.70;99.90;;;;;;6098332;23;19921;-87
2022/01/28 02:03:26;;;;;;;;;;;4.50;99.90;;;;;;6098055;23;19921;-87
2022/01/28 02:05:55;;;;;;;;;;;4.40;99.90;;;;;;6098337;23;19976;-86
2022/01/28 02:08:22;;;;;;;;;;;4.30;99.90;;;;;;6098672;23;19969;-86
2022/01/28 02:10:49;;;;;;;;;;;4.20;99.90;;;;;;6097978;23;19987;-87
2022/01/28 02:13:16;;;;;;;;;;;4.30;99.90;;;;;;6097703;23;19921;-86
2022/01/28 02:15:44;;;;;;;;;;;4.20;99.90;;;;;;6097714;23;19922;-87
2022/01/28 02:18:11;;;;;;;;;;;4.30;99.90;;;;;;6097652;23;19954;-87
2022/01/28 02:20:42;;;;;;;;;;;4.40;99.90;;;;;;6097565;23;19925;-86
2022/01/28 02:23:09;;;;;;;;;;;4.50;99.90;;;;;;6098529;23;19928;-86
2022/01/28 02:25:36;;;;;;;;;;;4.70;99.90;;;;;;6099820;23;19969;-86
2022/01/28 02:28:05;;;;;;;;;;;4.70;99.90;;;;;;6099013;23;19976;-86
2022/01/28 02:30:32;;;;;;;;;;;4.90;99.90;;;;;;6099905;23;19921;-86
2022/01/28 02:33:08;;;;;;;;;;;5.00;99.90;;;;;;6099755;23;20268;-86
2022/01/28 02:35:35;;;;;;;;;;;4.90;99.90;;;;;;6100285;23;19921;-86
2022/01/28 02:38:04;;;;;;;;;;;4.70;99.90;;;;;;6099500;23;19922;-86
2022/01/28 02:40:31;;;;;;;;;;;4.50;99.90;;;;;;6099758;23;19969;-86
2022/01/28 02:43:02;;;;;;;;;;;4.40;99.90;;;;;;6100189;23;19929;-86
2022/01/28 02:45:33;;;;;;;;;;;4.30;99.90;;;;;;6099785;23;19928;-85
2022/01/28 02:48:03;;;;;;;;;;;4.30;99.90;;;;;;6100108;23;19984;-86
2022/01/28 02:50:37;;;;;;;;;;;4.30;99.90;;;;;;6099661;23;19956;-86
2022/01/28 02:53:08;;;;;;;;;;;4.30;99.90;;;;;;6100036;23;19922;-86
2022/01/28 02:55:41;;;;;;;;;;;4.40;99.90;;;;;;6099709;23;19996;-86
2022/01/28 02:58:22;;;;;;;;;;;4.50;99.90;;;;;;6099535;23;19925;-86
2022/01/28 03:00:49;;;;;;;;;;;4.60;99.90;;;;;;6099545;23;19988;-85
2022/01/28 03:03:18;;;;;;;;;;;4.70;99.90;;;;;;6099292;23;20333;-86
2022/01/28 03:05:45;;;;;;;;;;;4.70;99.90;;;;;;6099549;23;20011;-86
2022/01/28 03:08:13;;;;;;;;;;;4.70;99.90;;;;;;6099408;23;19929;-86
2022/01/28 03:10:52;;;;;;;;;;;4.70;99.90;;;;;;6099573;23;19952;-86
2022/01/28 03:13:32;;;;;;;;;;;4.70;99.90;;;;;;6099531;23;20256;-86
2022/01/28 03:16:12;;;;;;;;;;;4.40;99.90;;;;;;6099716;23;19921;-86
2022/01/28 03:18:50;;;;;;;;;;;4.40;99.90;;;;;;6099455;23;19921;-86
2022/01/28 03:21:26;;;;;;;;;;;4.30;99.90;;;;;;6099748;23;19925;-86
2022/01/28 03:23:54;;;;;;;;;;;4.30;99.90;;;;;;6099412;23;19921;-86
2022/01/28 03:26:23;;;;;;;;;;;4.30;99.90;;;;;;6099243;23;19969;-87
2022/01/28 03:28:50;;;;;;;;;;;4.10;99.90;;;;;;6098808;23;19992;-85
2022/01/28 03:31:17;;;;;;;;;;;4.60;99.90;;;;;;6099622;23;19921;-86
2022/01/28 03:33:43;;;;;;;;;;;4.60;99.90;;;;;;6098993;23;20337;-86
2022/01/28 03:36:11;;;;;;;;;;;4.50;99.90;;;;;;6099444;23;19925;-85
2022/01/28 03:38:39;;;;;;;;;;;4.50;99.90;;;;;;6099334;23;19925;-86
2022/01/28 03:41:12;;;;;;;;;;;4.40;99.90;;;;;;6099212;23;19921;-86
2022/01/28 03:43:39;;;;;;;;;;;4.30;99.90;;;;;;6099116;23;19925;-86
2022/01/28 03:46:05;;;;;;;;;;;4.20;99.90;;;;;;6099210;23;19945;-86
2022/01/28 03:48:32;;;;;;;;;;;4.10;99.90;;;;;;6098917;23;19921;-86
2022/01/28 03:50:59;;;;;;;;;;;4.10;99.90;;;;;;6099557;23;19968;-86
2022/01/28 03:53:26;;;;;;;;;;;4.10;99.90;;;;;;6099485;23;19921;-86
2022/01/28 03:55:56;;;;;;;;;;;4.10;99.90;;;;;;6099504;23;19921;-86
2022/01/28 03:58:24;;;;;;;;;;;4.10;99.90;;;;;;6098621;23;20000;-86
2022/01/28 04:00:51;;;;;;;;;;;4.00;99.90;;;;;;6099211;23;19921;-86
2022/01/28 04:03:38;;;;;;;;;;;4.00;99.90;;;;;;6098366;23;19929;-86
2022/01/28 04:11:27;;;;;;;;;;;4.10;99.90;;;;;;6099021;23;20259;-86
2022/01/28 04:11:55;;;;;;;;;;;4.00;99.90;;;;;;6098938;23;19968;-86
2022/01/28 04:14:37;;;;;;;;;;;4.00;99.90;;;;;;6099182;23;19921;-86
2022/01/28 04:17:21;;;;;;;;;;;4.10;99.90;;;;;;6099056;23;19921;-86
2022/01/28 04:19:48;;;;;;;;;;;4.00;99.90;;;;;;6098676;23;20249;-86
2022/01/28 04:22:15;;;;;;;;;;;4.00;99.90;;;;;;6099142;23;19925;-86
2022/01/28 04:24:42;;;;;;;;;;;4.00;99.90;;;;;;6099025;23;19921;-86
2022/01/28 04:27:09;;;;;;;;;;;4.10;99.90;;;;;;6098601;23;19929;-86
2022/01/28 04:29:37;;;;;;;;;;;4.20;99.90;;;;;;6097892;23;19928;-86
2022/01/28 04:32:04;;;;;;;;;;;4.10;99.90;;;;;;6098493;23;19928;-87
2022/01/28 04:34:31;;;;;;;;;;;4.10;99.90;;;;;;6098480;23;19921;-87
2022/01/28 04:37:11;;;;;;;;;;;4.20;99.90;;;;;;6098209;23;19921;-86
2022/01/28 04:39:45;;;;;;;;;;;4.20;99.90;;;;;;6098014;23;19921;-86
2022/01/28 04:42:23;;;;;;;;;;;4.20;99.90;;;;;;6098403;23;19956;-86
2022/01/28 04:45:00;;;;;;;;;;;4.20;99.90;;;;;;6098706;23;20004;-86
2022/01/28 04:47:33;;;;;;;;;;;4.40;99.90;;;;;;6098406;23;19921;-86
2022/01/28 04:50:09;;;;;;;;;;;4.20;99.90;;;;;;6098708;23;19921;-86
2022/01/28 04:52:59;;;;;;;;;;;4.20;99.90;;;;;;6098667;23;19928;-86
2022/01/28 04:55:44;;;;;;;;;;;4.20;99.90;;;;;;6098890;23;20237;-86
2022/01/28 04:58:23;;;;;;;;;;;4.20;99.90;;;;;;6098616;23;20233;-86
2022/01/28 05:01:04;;;;;;;;;;;4.30;99.90;;;;;;6098517;23;19925;-87
2022/01/28 05:03:45;;;;;;;;;;;4.30;99.90;;;;;;6098435;23;19921;-86
2022/01/28 05:06:44;;;;;;;;;;;4.20;99.90;;;;;;6098706;23;19925;-85
2022/01/28 05:26:27;;;;;;;;;;;4.10;99.90;;;;;;5088648;28;19928;-85
2022/01/28 05:28:54;;;;;;;;;;;4.20;99.90;;;;;;5100219;28;19947;-85
2022/01/28 05:31:21;;;;;;;;;;;4.10;99.90;;;;;;5112257;28;19947;-85
2022/01/28 05:33:49;;;;;;;;;;;4.10;99.90;;;;;;5112267;28;19924;-85
2022/01/28 05:36:16;;;;;;;;;;;4.00;99.90;;;;;;5111909;27;19974;-85
2022/01/28 05:38:43;;;;;;;;;;;4.10;99.90;;;;;;5112186;28;19996;-86
2022/01/28 05:41:10;;;;;;;;;;;4.00;99.90;;;;;;5112277;28;19969;-85
2022/01/28 05:43:37;;;;;;;;;;;4.00;99.90;;;;;;5132073;27;19978;-85
2022/01/28 05:46:03;;;;;;;;;;;4.00;99.90;;;;;;5132454;27;19923;-84
2022/01/28 05:48:30;;;;;;;;;;;4.00;99.90;;;;;;5126612;27;19924;-85
2022/01/28 05:50:58;;;;;;;;;;;4.00;99.90;;;;;;5111758;28;20043;-85
2022/01/28 05:53:25;;;;;;;;;;;4.00;99.90;;;;;;5117769;28;19985;-85
2022/01/28 05:55:52;;;;;;;;;;;3.90;99.90;;;;;;5111414;28;20021;-85
2022/01/28 05:58:19;;;;;;;;;;;3.90;99.90;;;;;;5111149;28;20385;-86
2022/01/28 06:00:46;;;;;;;;;;;4.00;99.90;;;;;;5111382;28;19924;-85
2022/01/28 06:03:12;;;;;;;;;;;4.00;99.90;;;;;;5111913;28;20040;-86
2022/01/28 06:05:39;;;;;;;;;;;4.00;99.90;;;;;;5111556;28;19924;-86
2022/01/28 06:08:07;;;;;;;;;;;4.10;99.90;;;;;;5111193;28;19931;-86
2022/01/28 06:10:34;;;;;;;;;;;4.10;99.90;;;;;;5111893;28;19967;-86
2022/01/28 06:13:01;;;;;;;;;;;4.00;99.90;;;;;;5107779;28;19924;-86
2022/01/28 06:15:27;;;;;;;;;;;4.20;99.90;;;;;;5130797;28;19932;-86
2022/01/28 06:17:54;;;;;;;;;;;4.00;99.90;;;;;;5131645;27;19928;-86
2022/01/28 06:20:21;;;;;;;;;;;4.10;99.90;;;;;;5111654;27;19935;-85
2022/01/28 06:22:48;;;;;;;;;;;4.10;99.90;;;;;;5111140;28;19970;-84
2022/01/28 06:25:17;;;;;;;;;;;4.10;99.90;;;;;;5129017;28;19927;-86
2022/01/28 06:27:44;;;;;;;;;;;4.10;99.90;;;;;;5078360;27;20717;-85
2022/01/28 06:30:11;;;;;;;;;;;4.30;99.90;;;;;;5079315;28;19970;-85
2022/01/28 06:32:38;;;;;;;;;;;4.10;99.90;;;;;;5097274;28;19970;-84
2022/01/28 06:35:08;;;;;;;;;;;4.10;99.90;;;;;;5097253;28;19981;-85
2022/01/28 06:37:35;;;;;;;;;;;4.10;99.90;;;;;;5096798;28;20453;-85
2022/01/28 06:40:02;;;;;;;;;;;4.00;99.90;;;;;;5096570;28;20384;-85
2022/01/28 06:42:30;;;;;;;;;;;4.00;99.90;;;;;;5097063;28;19978;-87
2022/01/28 06:44:57;;;;;;;;;;;4.00;99.90;;;;;;5097086;28;19978;-87
2022/01/28 06:47:23;;;;;;;;;;;4.00;99.90;;;;;;5096319;28;19924;-87
2022/01/28 06:49:50;;;;;;;;;;;4.00;99.90;;;;;;5094478;28;19924;-87
2022/01/28 06:52:17;;;;;;;;;;;4.00;99.90;;;;;;5095143;28;20374;-87
2022/01/28 06:54:44;;;;;;;;;;;4.00;99.90;;;;;;5097288;28;19975;-86
2022/01/28 06:57:10;;;;;;;;;;;4.00;99.90;;;;;;5112135;28;20024;-87
2022/01/28 06:59:39;;;;;;;;;;;4.00;99.90;;;;;;5105680;28;19924;-87
2022/01/28 07:02:06;;;;;;;;;;;4.00;99.90;;;;;;5096684;28;20267;-87
2022/01/28 07:04:33;;;;;;;;;;;4.00;99.90;;;;;;5096630;28;19983;-86
2022/01/28 07:06:59;;;;;;;;;;;4.00;99.90;;;;;;5097116;28;19924;-86
2022/01/28 07:09:27;;;;;;;;;;;4.00;99.90;;;;;;5095978;28;19924;-88
2022/01/28 07:11:54;;;;;;;;;;;4.00;99.90;;;;;;5096881;28;19932;-84
2022/01/28 07:14:20;;;;;;;;;;;4.00;99.90;;;;;;5097290;28;19928;-87
2022/01/28 07:16:51;;;;;;;;;;;4.00;99.90;;;;;;5098329;28;19963;-87
2022/01/28 07:19:18;;;;;;;;;;;4.00;99.90;;;;;;5104994;28;19953;-86
2022/01/28 07:21:44;;;;;;;;;;;4.00;99.90;;;;;;5096436;28;19978;-86
2022/01/28 07:24:11;;;;;;;;;;;3.70;99.90;;;;;;5096312;28;19970;-85
2022/01/28 07:26:38;;;;;;;;;;;4.20;99.90;;;;;;5096635;28;19924;-85
2022/01/28 07:29:05;;;;;;;;;;;4.10;99.90;;;;;;5108529;28;20329;-86
2022/01/28 07:31:33;;;;;;;;;;;4.10;99.90;;;;;;5104114;28;20369;-86
2022/01/28 07:34:01;;;;;;;;;;;4.10;99.90;;;;;;5113414;28;20336;-86
2022/01/28 07:36:28;;;;;;;;;;;4.20;99.90;;;;;;5096064;28;19924;-87
2022/01/28 07:38:54;;;;;;;;;;;4.20;99.90;;;;;;5095662;28;19932;-87
2022/01/28 07:41:21;;;;;;;;;;;4.40;99.90;;;;;;5095417;28;19988;-87
2022/01/28 07:43:48;;;;;;;;;;;4.30;99.90;;;;;;5095206;28;19924;-86
2022/01/28 07:46:15;;;;;;;;;;;4.20;99.90;;;;;;5096418;28;20297;-87
2022/01/28 07:48:42;;;;;;;;;;;4.30;99.90;;;;;;5095751;28;20382;-86
2022/01/28 07:51:10;;;;;;;;;;;4.40;99.90;;;;;;5096018;28;19924;-86
2022/01/28 07:53:37;;;;;;;;;;;4.40;99.90;;;;;;5116728;28;19927;-86
2022/01/28 07:56:04;;;;;;;;;;;4.50;99.90;;;;;;5098313;28;19928;-86
2022/01/28 07:58:31;;;;;;;;;;;4.50;99.90;;;;;;5108811;28;19928;-87
2022/01/28 08:00:58;;;;;;;;;;;4.30;99.90;;;;;;5116005;28;20363;-86
2022/01/28 08:03:25;;;;;;;;;;;4.50;99.90;;;;;;5106714;28;19932;-86
2022/01/28 08:05:52;;;;;;;;;;;4.60;99.90;;;;;;5099647;28;19924;-87
2022/01/28 08:08:21;;;;;;;;;;;4.60;99.90;;;;;;5096055;28;20013;-86
2022/01/28 08:10:48;;;;;;;;;;;4.60;99.90;;;;;;5111708;28;19924;-86
2022/01/28 08:13:15;;;;;;;;;;;4.60;99.90;;;;;;5096284;28;19928;-85
2022/01/28 08:15:42;;;;;;;;;;;4.50;99.90;;;;;;5097063;28;19924;-86
2022/01/28 08:18:09;;;;;;;;;;;4.70;99.90;;;;;;5094868;28;19972;-85
2022/01/28 08:20:36;;;;;;;;;;;4.80;99.90;;;;;;5096509;28;19924;-86
2022/01/28 08:23:03;;;;;;;;;;;4.80;99.90;;;;;;5099724;28;19992;-86
2022/01/28 08:25:32;;;;;;;;;;;4.70;99.90;;;;;;5100467;28;19925;-86
2022/01/28 08:27:59;;;;;;;;;;;4.80;99.90;;;;;;5099818;28;20095;-86
2022/01/28 08:30:27;;;;;;;;;;;4.90;99.90;;;;;;5101257;28;19924;-86
2022/01/28 08:32:54;;;;;;;;;;;4.90;99.90;;;;;;5096702;28;19950;-88
2022/01/28 08:35:28;;;;;;;;;;;4.90;99.90;;;;;;5098151;28;19928;-87
2022/01/28 08:37:56;;;;;;;;;;;4.90;99.90;;;;;;5099811;28;19928;-86
2022/01/28 08:40:24;;;;;;;;;;;5.40;99.90;;;;;;5095187;28;19924;-88
2022/01/28 08:42:52;;;;;;;;;;;5.20;99.90;;;;;;5095325;28;20550;-87
2022/01/28 08:45:19;;;;;;;;;;;5.00;99.90;;;;;;5091895;28;19974;-85
2022/01/28 08:47:46;;;;;;;;;;;5.10;99.90;;;;;;5074623;28;19925;-85
2022/01/28 08:50:13;;;;;;;;;;;5.50;99.90;;;;;;5066565;28;19985;-86
2022/01/28 08:52:40;;;;;;;;;;;5.20;99.90;;;;;;5014233;28;20615;-85
2022/01/28 08:55:07;;;;;;;;;;;4.90;99.90;;;;;;5021107;28;20103;-86
2022/01/28 08:57:34;;;;;;;;;;;5.30;99.90;;;;;;5020577;28;20697;-86
2022/01/28 09:00:07;;;;;;;;;;;5.30;99.90;;;;;;5036218;28;19925;-88
2022/01/28 09:02:34;;;;;;;;;;;5.30;99.90;;;;;;5036177;28;19931;-85
2022/01/28 09:05:01;;;;;;;;;;;5.40;99.90;;;;;;5060325;28;20048;-85
2022/01/28 09:07:28;;;;;;;;;;;5.60;99.90;;;;;;5026289;28;19975;-86
2022/01/28 09:10:02;;;;;;;;;;;5.70;99.90;;;;;;5053081;28;20816;-87
2022/01/28 09:15:25;;;;;;;;;;;5.70;99.90;;;;;;5039706;28;19931;-85
2022/01/28 09:18:05;;;;;;;;;;;5.70;99.90;;;;;;5081410;28;20018;-86
2022/01/28 09:20:33;;;;;;;;;;;5.90;99.90;;;;;;5084949;28;19932;-86
2022/01/28 09:23:00;;;;;;;;;;;5.80;99.90;;;;;;5084493;28;19924;-86
2022/01/28 09:25:27;;;;;;;;;;;6.00;99.90;;;;;;5084658;28;19935;-87
2022/01/28 09:27:54;;;;;;;;;;;6.10;99.90;;;;;;5088162;28;19981;-87
2022/01/28 09:30:22;;;;;;;;;;;6.10;99.90;;;;;;5091530;28;20231;-87
2022/01/28 09:32:49;;;;;;;;;;;6.00;99.90;;;;;;5080137;28;19970;-85
2022/01/28 09:35:18;;;;;;;;;;;6.00;99.90;;;;;;5092305;28;20030;-90
2022/01/28 09:37:45;;;;;;;;;;;5.90;99.90;;;;;;5083225;28;19933;-85
2022/01/28 09:40:15;;;;;;;;;;;6.00;99.90;;;;;;5032025;28;19939;-86
2022/01/28 09:42:45;;;;;;;;;;;5.90;99.90;;;;;;5052145;28;19928;-86
2022/01/28 09:45:15;;;;;;;;;;;6.10;99.90;;;;;;5078594;28;19931;-85
2022/01/28 09:47:41;;;;;;;;;;;6.10;99.90;;;;;;5077358;28;19924;-86
2022/01/28 09:50:09;;;;;;;;;;;6.00;99.90;;;;;;5082201;28;19960;-85
2022/01/28 09:52:39;;;;;;;;;;;6.20;99.90;;;;;;5074288;28;20017;-90
2022/01/28 09:55:07;;;;;;;;;;;6.30;99.90;;;;;;5079707;28;20064;-86
2022/01/28 09:57:34;;;;;;;;;;;6.30;99.90;;;;;;5044414;28;20111;-87
2022/01/28 10:00:01;;;;;;;;;;;6.20;99.90;;;;;;5017202;28;19932;-87
2022/01/28 10:02:42;;;;;;;;;;;6.70;99.90;;;;;;5021800;28;19925;-86
2022/01/28 10:05:17;;;;;;;;;;;6.60;99.90;;;;;;5027349;28;19932;-84
2022/01/28 10:10:47;;;;;;;;;;;6.80;99.90;;;;;;5118535;27;20002;-87
2022/01/28 10:13:17;;;;;;;;;;;6.50;99.90;;;;;;5081423;28;20026;-87
2022/01/28 10:15:56;;;;;;;;;;;6.80;99.90;;;;;;5100975;28;19924;-87
2022/01/28 10:18:28;;;;;;;;;;;6.90;99.90;;;;;;5069563;28;21180;-87
2022/01/28 10:20:55;;;;;;;;;;;7.40;99.90;;;;;;5070148;28;19986;-87
2022/01/28 10:23:22;;;;;;;;;;;6.90;99.90;;;;;;5099365;28;20038;-86
2022/01/28 10:25:56;;;;;;;;;;;6.80;99.90;;;;;;5099281;28;19997;-88
2022/01/28 10:28:23;;;;;;;;;;;6.80;99.90;;;;;;5076033;28;20597;-86
2022/01/28 10:30:50;;;;;;;;;;;6.60;99.90;;;;;;5032966;28;20730;-87
2022/01/28 10:33:19;;;;;;;;;;;6.50;99.90;;;;;;5027614;28;19970;-85
2022/01/28 10:35:50;;;;;;;;;;;6.80;99.90;;;;;;5032686;28;21307;-86
2022/01/28 10:38:30;;;;;;;;;;;8.10;99.90;;;;;;5033489;28;20054;-86
2022/01/28 10:41:08;;;;;;;;;;;7.00;99.90;;;;;;5044723;28;20340;-86
2022/01/28 10:43:42;;;;;;;;;;;6.70;99.90;;;;;;5027221;28;19924;-88
2022/01/28 10:46:08;;;;;;;;;;;7.30;99.90;;;;;;5037345;28;19931;-87
2022/01/28 10:48:49;;;;;;;;;;;7.40;99.90;;;;;;5043858;28;19934;-87
2022/01/28 10:51:16;;;;;;;;;;;7.40;99.90;;;;;;5038642;28;20323;-85
2022/01/28 10:53:43;;;;;;;;;;;7.10;99.90;;;;;;5040860;28;19928;-86
2022/01/28 10:56:13;;;;;;;;;;;7.80;99.90;;;;;;5043366;28;20348;-85
2022/01/28 10:58:40;;;;;;;;;;;7.40;99.90;;;;;;5030764;28;19943;-86
2022/01/28 11:01:07;;;;;;;;;;;7.40;99.90;;;;;;5028563;28;19985;-86
2022/01/28 11:03:36;;;;;;;;;;;7.40;99.90;;;;;;5028145;28;19988;-86
2022/01/28 11:06:04;;;;;;;;;;;7.50;99.90;;;;;;5031057;28;19932;-86
2022/01/28 11:08:34;;;;;;;;;;;7.50;99.90;;;;;;5032320;28;20010;-87
2022/01/28 11:11:02;;;;;;;;;;;7.60;99.90;;;;;;5026714;28;19942;-87
2022/01/28 11:13:30;;;;;;;;;;;7.60;99.90;;;;;;5074268;28;19923;-87
2022/01/28 11:15:57;;;;;;;;;;;7.70;99.90;;;;;;5100365;28;21339;-86
2022/01/28 11:18:27;;;;;;;;;;;7.70;99.90;;;;;;5100613;28;19947;-86
2022/01/28 11:20:56;;;;;;;;;;;7.80;99.90;;;;;;5059045;28;19989;-87
2022/01/28 11:23:27;;;;;;;;;;;8.10;99.90;;;;;;5019190;28;19992;-87
2022/01/28 11:26:01;;;;;;;;;;;7.80;99.90;;;;;;5020836;28;19924;-87
2022/01/28 11:28:43;;;;;;;;;;;7.70;99.90;;;;;;5014575;28;20653;-87
2022/01/28 11:31:11;;;;;;;;;;;8.60;99.90;;;;;;5076009;28;20018;-86
2022/01/28 11:33:45;;;;;;;;;;;7.90;99.90;;;;;;5085302;28;20385;-86
2022/01/28 11:36:12;;;;;;;;;;;8.00;99.90;;;;;;5085060;28;19924;-86
2022/01/28 11:38:44;;;;;;;;;;;7.90;99.90;;;;;;5096060;28;20351;-90
2022/01/28 11:41:12;;;;;;;;;;;7.90;99.90;;;;;;5093614;28;19958;-86
2022/01/28 11:43:47;;;;;;;;;;;6.90;99.90;;;;;;5086007;28;19924;-85
2022/01/28 11:46:19;;;;;;;;;;;8.20;99.90;;;;;;5075899;28;19963;-87
2022/01/28 11:49:16;;;;;;;;;;;8.20;99.90;;;;;;5085239;28;19928;-86
2022/01/28 11:51:43;;;;;;;;;;;8.40;99.90;;;;;;5079933;28;19978;-87
2022/01/28 11:54:11;;;;;;;;;;;8.40;99.90;;;;;;5088451;28;19999;-87
2022/01/28 11:56:39;;;;;;;;;;;8.50;99.90;;;;;;5083558;28;19935;-88
2022/01/28 11:59:08;;;;;;;;;;;7.80;99.90;;;;;;5027413;28;20460;-85
2022/01/28 12:01:54;;;;;;;;;;;8.50;99.90;;;;;;5032406;28;20009;-85
2022/01/28 12:04:37;;;;;;;;;;;8.60;99.90;;;;;;5026902;28;19939;-88
2022/01/28 12:07:05;;;;;;;;;;;8.70;99.90;;;;;;5028266;28;19925;-87
2022/01/28 12:09:33;;;;;;;;;;;8.90;99.90;;;;;;5029705;28;20596;-87
2022/01/28 12:12:04;;;;;;;;;;;10.20;99.90;;;;;;5044166;28;20072;-85
2022/01/28 12:14:49;;;;;;;;;;;9.00;99.90;;;;;;5064749;28;19955;-85
2022/01/28 12:17:36;;;;;;;;;;;9.00;99.90;;;;;;5024686;28;19975;-87
2022/01/28 12:20:23;;;;;;;;;;;8.50;99.90;;;;;;5028507;28;19932;-87
2022/01/28 12:23:09;;;;;;;;;;;8.90;99.90;;;;;;5032260;28;20575;-87
2022/01/28 12:26:02;;;;;;;;;;;10.30;99.90;;;;;;5028200;28;19963;-85
2022/01/28 12:28:42;;;;;;;;;;;8.70;99.90;;;;;;5030941;28;20190;-89
2022/01/28 12:31:12;;;;;;;;;;;8.80;99.90;;;;;;5020174;28;19945;-86
2022/01/28 12:33:40;;;;;;;;;;;9.00;99.90;;;;;;5021717;28;19924;-87
2022/01/28 12:36:08;;;;;;;;;;;8.70;99.90;;;;;;5026742;28;19951;-88
2022/01/28 12:38:37;;;;;;;;;;;8.40;99.90;;;;;;5051592;28;19931;-87
2022/01/28 12:41:07;;;;;;;;;;;8.80;99.90;;;;;;5084847;28;19935;-86
2022/01/28 12:43:34;;;;;;;;;;;8.90;99.90;;;;;;5082043;28;20035;-88
2022/01/28 12:46:02;;;;;;;;;;;9.00;99.90;;;;;;5085372;28;19925;-87
2022/01/28 12:48:29;;;;;;;;;;;9.10;99.90;;;;;;5037030;28;19967;-87
2022/01/28 12:50:56;;;;;;;;;;;9.20;99.90;;;;;;5032182;28;19962;-86
2022/01/28 12:53:30;;;;;;;;;;;9.10;99.90;;;;;;5029032;28;20001;-87
2022/01/28 12:55:57;;;;;;;;;;;9.10;99.90;;;;;;5042599;28;20971;-85
2022/01/28 12:58:33;;;;;;;;;;;9.10;99.90;;;;;;5027512;28;20339;-85
2022/01/28 13:01:04;;;;;;;;;;;9.10;99.90;;;;;;5019676;28;21311;-87
2022/01/28 13:03:38;;;;;;;;;;;9.00;99.90;;;;;;5029356;28;20062;-87
2022/01/28 13:06:24;;;;;;;;;;;9.00;99.90;;;;;;5029127;28;20056;-87
2022/01/28 13:08:52;;;;;;;;;;;9.00;99.90;;;;;;5016506;28;19931;-86
2022/01/28 13:11:18;;;;;;;;;;;7.00;99.90;;;;;;5028255;28;20372;-89
2022/01/28 13:13:51;;;;;;;;;;;9.20;99.90;;;;;;5061737;28;20046;-87
2022/01/28 13:16:30;;;;;;;;;;;9.20;99.90;;;;;;5038389;28;19940;-86
2022/01/28 13:19:01;;;;;;;;;;;9.40;99.90;;;;;;5035735;28;19924;-87
2022/01/28 13:21:31;;;;;;;;;;;7.60;99.90;;;;;;5034459;28;19924;-88
2022/01/28 13:24:05;;;;;;;;;;;8.10;99.90;;;;;;5036198;28;19930;-87
2022/01/28 13:26:32;;;;;;;;;;;9.10;99.90;;;;;;5030891;28;20631;-87
2022/01/28 13:29:10;;;;;;;;;;;9.30;99.90;;;;;;5048025;28;20439;-89
2022/01/28 13:31:37;;;;;;;;;;;9.40;99.90;;;;;;5043574;28;19936;-86
2022/01/28 13:34:06;;;;;;;;;;;9.30;99.90;;;;;;5025726;28;20004;-87
2022/01/28 13:36:46;;;;;;;;;;;9.30;99.90;;;;;;5034410;28;20037;-87
2022/01/28 13:39:17;;;;;;;;;;;9.40;99.90;;;;;;5036768;28;19936;-88
2022/01/28 13:41:45;;;;;;;;;;;9.30;99.90;;;;;;5038676;28;19931;-89
2022/01/28 13:44:25;;;;;;;;;;;9.50;99.90;;;;;;5042588;28;20006;-88
2022/01/28 13:46:57;;;;;;;;;;;9.50;99.90;;;;;;5036595;28;19967;-89
2022/01/28 13:49:28;;;;;;;;;;;9.50;99.90;;;;;;5054516;28;19928;-89
2022/01/28 13:52:06;;;;;;;;;;;9.40;99.90;;;;;;5042387;28;19947;-88
2022/01/28 13:54:33;;;;;;;;;;;9.40;99.90;;;;;;5056944;28;19929;-87
2022/01/28 13:57:00;;;;;;;;;;;9.50;99.90;;;;;;5052720;28;19924;-87
2022/01/28 13:59:30;;;;;;;;;;;9.50;99.90;;;;;;5071301;28;19932;-88
2022/01/28 14:01:59;;;;;;;;;;;9.70;99.90;;;;;;5055154;28;19936;-87
2022/01/28 14:04:27;;;;;;;;;;;9.70;99.90;;;;;;5084264;28;19973;-88
2022/01/28 14:07:08;;;;;;;;;;;9.80;99.90;;;;;;5060022;28;20453;-88
2022/01/28 14:09:42;;;;;;;;;;;9.80;99.90;;;;;;5080094;28;20395;-88
2022/01/28 14:12:12;;;;;;;;;;;10.00;99.90;;;;;;5077338;28;20676;-88
2022/01/28 14:14:47;;;;;;;;;;;9.90;99.90;;;;;;5027972;28;20337;-88
2022/01/28 14:17:14;;;;;;;;;;;10.00;99.90;;;;;;5022523;28;19960;-90
2022/01/28 14:19:43;;;;;;;;;;;9.90;99.90;;;;;;5023593;28;19924;-89
2022/01/28 14:22:12;;;;;;;;;;;9.90;99.90;;;;;;5011206;28;19925;-89
2022/01/28 14:24:40;;;;;;;;;;;9.90;99.90;;;;;;5014480;28;19978;-88
2022/01/28 14:27:23;;;;;;;;;;;9.90;99.90;;;;;;5004524;28;19928;-88
2022/01/28 14:29:55;;;;;;;;;;;10.00;99.90;;;;;;5009909;28;19975;-88
2022/01/28 14:32:36;;;;;;;;;;;9.80;99.90;;;;;;5018797;28;19935;-88
2022/01/28 14:35:03;;;;;;;;;;;9.90;99.90;;;;;;5087811;28;19936;-87
2022/01/28 14:37:37;;;;;;;;;;;9.90;99.90;;;;;;5084531;28;19924;-88
2022/01/28 14:40:07;;;;;;;;;;;9.80;99.90;;;;;;5085703;28;20020;-87
2022/01/28 14:42:34;;;;;;;;;;;11.10;99.90;;;;;;5081961;28;19925;-88
2022/01/28 14:45:03;;;;;;;;;;;9.70;99.90;;;;;;5074804;28;19924;-88
2022/01/28 14:47:30;;;;;;;;;;;10.00;99.90;;;;;;5080532;28;19933;-88
2022/01/28 14:49:57;;;;;;;;;;;9.90;99.90;;;;;;5086601;28;20339;-90
2022/01/28 14:52:29;;;;;;;;;;;9.90;99.90;;;;;;5081255;28;19931;-89
2022/01/28 14:54:56;;;;;;;;;;;10.00;99.90;;;;;;5014021;28;19996;-89
2022/01/28 14:57:25;;;;;;;;;;;9.90;99.90;;;;;;5008103;28;20357;-88
2022/01/28 14:59:52;;;;;;;;;;;10.00;99.90;;;;;;5023343;28;19924;-89
2022/01/28 15:02:33;;;;;;;;;;;10.10;99.90;;;;;;5022156;28;19928;-93
2022/01/28 15:08:09;;;;;;;;;;;9.70;99.90;;;;;;5041854;28;20154;-90
2022/01/28 15:10:39;;;;;;;;;;;10.10;99.90;;;;;;5047582;28;19924;-86
2022/01/28 15:13:06;;;;;;;;;;;10.20;99.90;;;;;;5071042;28;19982;-89
2022/01/28 15:15:33;;;;;;;;;;;10.20;99.90;;;;;;5025676;28;19960;-87
2022/01/28 15:18:01;;;;;;;;;;;10.30;99.90;;;;;;5078083;28;19974;-89
2022/01/28 15:20:28;;;;;;;;;;;9.10;99.90;;;;;;5091636;28;19924;-89
2022/01/28 15:22:55;;;;;;;;;;;10.30;99.90;;;;;;5081917;28;20277;-89
2022/01/28 15:25:22;;;;;;;;;;;10.40;99.90;;;;;;5087781;28;19928;-88
2022/01/28 15:27:50;;;;;;;;;;;11.30;99.90;;;;;;5079996;28;20707;-88
2022/01/28 15:30:28;;;;;;;;;;;10.30;99.90;;;;;;5087831;28;19928;-88
2022/01/28 15:36:00;;;;;;;;;;;10.30;99.90;;;;;;5083942;28;19947;-89
2022/01/28 15:38:33;;;;;;;;;;;10.30;99.90;;;;;;5089296;28;20297;-87
2022/01/28 15:41:01;;;;;;;;;;;10.30;99.90;;;;;;5090720;28;19979;-89
2022/01/28 15:43:28;;;;;;;;;;;9.60;99.90;;;;;;5094024;28;19931;-87
2022/01/28 15:45:55;;;;;;;;;;;10.20;99.90;;;;;;5085027;28;19978;-87
2022/01/28 15:48:22;;;;;;;;;;;10.20;99.90;;;;;;5079238;28;19985;-88